sensor_id;sensor_type;location;lat;lon;timestamp;P1;durP1;ratioP1;P2;durP2;ratioP2
33108;SDS011;19481;51.118;6.940;2024-03-02T00:02:34;0.60;;;0.60;;
33108;SDS011;19481;51.118;6.940;2024-03-02T00:07:40;0.52;;;0.52;;
33108;SDS011;19481;51.118;6.940;2024-03-02T00:12:43;0.95;;;0.95;;
33108;SDS011;19481;51.118;6.940;2024-03-02T00:17:52;1.08;;;1.05;;
33108;SDS011;19481;51.118;6.940;2024-03-02T00:22:55;0.70;;;0.70;;
33108;SDS011;19481;51.118;6.940;2024-03-02T00:28:04;0.70;;;0.70;;
33108;SDS011;19481;51.118;6.940;2024-03-02T00:33:08;0.75;;;0.68;;
33108;SDS011;19481;51.118;6.940;2024-03-02T00:38:11;0.73;;;0.73;;
33108;SDS011;19481;51.118;6.940;2024-03-02T00:48:45;0.80;;;0.70;;
33108;SDS011;19481;51.118;6.940;2024-03-02T00:53:58;0.68;;;0.68;;
33108;SDS011;19481;51.118;6.940;2024-03-02T00:59:00;0.90;;;0.75;;
33108;SDS011;19481;51.118;6.940;2024-03-02T01:04:04;0.70;;;0.70;;
33108;SDS011;19481;51.118;6.940;2024-03-02T01:09:05;0.80;;;0.80;;
33108;SDS011;19481;51.118;6.940;2024-03-02T01:14:07;0.80;;;0.80;;
33108;SDS011;19481;51.118;6.940;2024-03-02T01:19:10;0.60;;;0.50;;
33108;SDS011;19481;51.118;6.940;2024-03-02T01:24:11;0.50;;;0.50;;
33108;SDS011;19481;51.118;6.940;2024-03-02T01:29:13;0.60;;;0.60;;
33108;SDS011;19481;51.118;6.940;2024-03-02T01:34:16;0.98;;;0.73;;
33108;SDS011;19481;51.118;6.940;2024-03-02T01:39:18;0.73;;;0.73;;
33108;SDS011;19481;51.118;6.940;2024-03-02T01:44:20;0.55;;;0.55;;
33108;SDS011;19481;51.118;6.940;2024-03-02T01:49:22;0.70;;;0.70;;
33108;SDS011;19481;51.118;6.940;2024-03-02T01:54:24;0.60;;;0.60;;
33108;SDS011;19481;51.118;6.940;2024-03-02T01:59:26;1.13;;;0.50;;
33108;SDS011;19481;51.118;6.940;2024-03-02T02:04:29;0.60;;;0.60;;
33108;SDS011;19481;51.118;6.940;2024-03-02T02:09:31;0.60;;;0.60;;
33108;SDS011;19481;51.118;6.940;2024-03-02T02:14:32;0.70;;;0.70;;
33108;SDS011;19481;51.118;6.940;2024-03-02T02:19:36;0.50;;;0.50;;
33108;SDS011;19481;51.118;6.940;2024-03-02T02:24:40;0.50;;;0.50;;
33108;SDS011;19481;51.118;6.940;2024-03-02T02:29:42;0.70;;;0.60;;
33108;SDS011;19481;51.118;6.940;2024-03-02T02:34:44;0.50;;;0.50;;
33108;SDS011;19481;51.118;6.940;2024-03-02T02:39:47;0.73;;;0.73;;
33108;SDS011;19481;51.118;6.940;2024-03-02T02:44:48;0.70;;;0.70;;
33108;SDS011;19481;51.118;6.940;2024-03-02T02:49:50;0.88;;;0.88;;
33108;SDS011;19481;51.118;6.940;2024-03-02T02:54:53;0.60;;;0.60;;
33108;SDS011;19481;51.118;6.940;2024-03-02T02:59:54;0.80;;;0.80;;
33108;SDS011;19481;51.118;6.940;2024-03-02T03:04:56;0.77;;;0.77;;
33108;SDS011;19481;51.118;6.940;2024-03-02T03:09:59;0.60;;;0.60;;
33108;SDS011;19481;51.118;6.940;2024-03-02T03:15:01;1.83;;;0.90;;
33108;SDS011;19481;51.118;6.940;2024-03-02T03:20:05;0.70;;;0.70;;
33108;SDS011;19481;51.118;6.940;2024-03-02T03:25:11;0.50;;;0.50;;
33108;SDS011;19481;51.118;6.940;2024-03-02T03:30:13;0.60;;;0.60;;
33108;SDS011;19481;51.118;6.940;2024-03-02T03:35:15;0.55;;;0.55;;
33108;SDS011;19481;51.118;6.940;2024-03-02T03:40:18;0.55;;;0.55;;
33108;SDS011;19481;51.118;6.940;2024-03-02T03:45:19;0.80;;;0.80;;
33108;SDS011;19481;51.118;6.940;2024-03-02T03:50:21;0.60;;;0.60;;
33108;SDS011;19481;51.118;6.940;2024-03-02T03:55:24;0.77;;;0.60;;
33108;SDS011;19481;51.118;6.940;2024-03-02T04:00:26;0.70;;;0.70;;
33108;SDS011;19481;51.118;6.940;2024-03-02T04:05:27;0.60;;;0.60;;
33108;SDS011;19481;51.118;6.940;2024-03-02T04:10:30;1.73;;;0.75;;
33108;SDS011;19481;51.118;6.940;2024-03-02T04:15:32;0.63;;;0.63;;
33108;SDS011;19481;51.118;6.940;2024-03-02T04:20:34;0.70;;;0.70;;
33108;SDS011;19481;51.118;6.940;2024-03-02T04:25:36;0.70;;;0.70;;
33108;SDS011;19481;51.118;6.940;2024-03-02T04:30:38;0.70;;;0.70;;
33108;SDS011;19481;51.118;6.940;2024-03-02T04:35:40;0.85;;;0.80;;
33108;SDS011;19481;51.118;6.940;2024-03-02T04:40:43;0.60;;;0.60;;
33108;SDS011;19481;51.118;6.940;2024-03-02T04:45:44;1.10;;;0.82;;
33108;SDS011;19481;51.118;6.940;2024-03-02T04:50:46;0.50;;;0.50;;
33108;SDS011;19481;51.118;6.940;2024-03-02T04:55:49;0.60;;;0.60;;
33108;SDS011;19481;51.118;6.940;2024-03-02T05:01:19;0.70;;;0.70;;
33108;SDS011;19481;51.118;6.940;2024-03-02T05:06:20;0.60;;;0.60;;
33108;SDS011;19481;51.118;6.940;2024-03-02T05:11:24;0.63;;;0.63;;
33108;SDS011;19481;51.118;6.940;2024-03-02T05:16:43;0.52;;;0.52;;
33108;SDS011;19481;51.118;6.940;2024-03-02T05:21:44;0.55;;;0.55;;
33108;SDS011;19481;51.118;6.940;2024-03-02T05:26:47;0.60;;;0.60;;
33108;SDS011;19481;51.118;6.940;2024-03-02T05:31:49;0.73;;;0.60;;
33108;SDS011;19481;51.118;6.940;2024-03-02T05:36:51;0.70;;;0.70;;
33108;SDS011;19481;51.118;6.940;2024-03-02T05:41:53;0.70;;;0.70;;
33108;SDS011;19481;51.118;6.940;2024-03-02T05:46:55;0.60;;;0.60;;
33108;SDS011;19481;51.118;6.940;2024-03-02T05:51:57;0.75;;;0.75;;
33108;SDS011;19481;51.118;6.940;2024-03-02T05:57:00;0.60;;;0.60;;
33108;SDS011;19481;51.118;6.940;2024-03-02T06:02:16;0.80;;;0.80;;
33108;SDS011;19481;51.118;6.940;2024-03-02T06:07:18;1.80;;;0.70;;
33108;SDS011;19481;51.118;6.940;2024-03-02T06:12:21;0.63;;;0.63;;
33108;SDS011;19481;51.118;6.940;2024-03-02T06:17:23;0.70;;;0.70;;
33108;SDS011;19481;51.118;6.940;2024-03-02T06:22:24;0.70;;;0.70;;
33108;SDS011;19481;51.118;6.940;2024-03-02T06:27:27;0.93;;;0.60;;
33108;SDS011;19481;51.118;6.940;2024-03-02T06:32:29;2.45;;;0.80;;
33108;SDS011;19481;51.118;6.940;2024-03-02T06:37:31;0.80;;;0.80;;
33108;SDS011;19481;51.118;6.940;2024-03-02T06:42:34;1.08;;;0.93;;
33108;SDS011;19481;51.118;6.940;2024-03-02T06:47:35;0.70;;;0.70;;
33108;SDS011;19481;51.118;6.940;2024-03-02T06:52:37;1.30;;;0.90;;
33108;SDS011;19481;51.118;6.940;2024-03-02T06:57:40;0.60;;;0.60;;
33108;SDS011;19481;51.118;6.940;2024-03-02T07:02:42;0.88;;;0.88;;
33108;SDS011;19481;51.118;6.940;2024-03-02T07:07:43;0.77;;;0.75;;
33108;SDS011;19481;51.118;6.940;2024-03-02T07:12:46;0.60;;;0.60;;
33108;SDS011;19481;51.118;6.940;2024-03-02T07:17:48;0.80;;;0.80;;
33108;SDS011;19481;51.118;6.940;2024-03-02T07:22:49;0.70;;;0.70;;
33108;SDS011;19481;51.118;6.940;2024-03-02T07:27:52;1.00;;;0.80;;
33108;SDS011;19481;51.118;6.940;2024-03-02T07:32:54;0.70;;;0.70;;
33108;SDS011;19481;51.118;6.940;2024-03-02T07:37:55;1.33;;;1.10;;
33108;SDS011;19481;51.118;6.940;2024-03-02T07:42:58;0.55;;;0.55;;
33108;SDS011;19481;51.118;6.940;2024-03-02T07:48:00;0.70;;;0.70;;
33108;SDS011;19481;51.118;6.940;2024-03-02T07:53:04;0.90;;;0.80;;
33108;SDS011;19481;51.118;6.940;2024-03-02T07:58:07;0.75;;;0.75;;
33108;SDS011;19481;51.118;6.940;2024-03-02T08:03:09;1.00;;;0.90;;
33108;SDS011;19481;51.118;6.940;2024-03-02T08:08:11;0.82;;;0.82;;
33108;SDS011;19481;51.118;6.940;2024-03-02T08:13:14;0.77;;;0.77;;
33108;SDS011;19481;51.118;6.940;2024-03-02T08:18:15;0.73;;;0.73;;
33108;SDS011;19481;51.118;6.940;2024-03-02T08:23:17;0.75;;;0.75;;
33108;SDS011;19481;51.118;6.940;2024-03-02T08:28:20;1.13;;;0.80;;
33108;SDS011;19481;51.118;6.940;2024-03-02T08:33:22;0.60;;;0.60;;
33108;SDS011;19481;51.118;6.940;2024-03-02T08:38:24;1.10;;;0.82;;
33108;SDS011;19481;51.118;6.940;2024-03-02T08:43:27;0.77;;;0.77;;
33108;SDS011;19481;51.118;6.940;2024-03-02T08:48:28;0.80;;;0.80;;
33108;SDS011;19481;51.118;6.940;2024-03-02T08:53:30;1.05;;;0.75;;
33108;SDS011;19481;51.118;6.940;2024-03-02T08:58:33;0.70;;;0.70;;
33108;SDS011;19481;51.118;6.940;2024-03-02T09:03:35;0.70;;;0.70;;
33108;SDS011;19481;51.118;6.940;2024-03-02T09:08:37;0.63;;;0.63;;
33108;SDS011;19481;51.118;6.940;2024-03-02T09:13:40;1.15;;;0.90;;
33108;SDS011;19481;51.118;6.940;2024-03-02T09:18:42;0.68;;;0.68;;
33108;SDS011;19481;51.118;6.940;2024-03-02T09:23:44;3.15;;;0.77;;
33108;SDS011;19481;51.118;6.940;2024-03-02T09:28:47;0.63;;;0.63;;
33108;SDS011;19481;51.118;6.940;2024-03-02T09:33:48;0.57;;;0.57;;
33108;SDS011;19481;51.118;6.940;2024-03-02T09:38:50;0.50;;;0.50;;
33108;SDS011;19481;51.118;6.940;2024-03-02T09:43:53;0.70;;;0.70;;
33108;SDS011;19481;51.118;6.940;2024-03-02T09:48:56;1.50;;;0.63;;
33108;SDS011;19481;51.118;6.940;2024-03-02T09:53:57;1.45;;;0.85;;
33108;SDS011;19481;51.118;6.940;2024-03-02T09:59:03;1.05;;;0.50;;
33108;SDS011;19481;51.118;6.940;2024-03-02T10:04:05;1.00;;;1.00;;
33108;SDS011;19481;51.118;6.940;2024-03-02T10:09:06;0.60;;;0.60;;
33108;SDS011;19481;51.118;6.940;2024-03-02T10:14:10;0.68;;;0.68;;
33108;SDS011;19481;51.118;6.940;2024-03-02T10:19:16;0.63;;;0.50;;
33108;SDS011;19481;51.118;6.940;2024-03-02T10:24:19;2.40;;;0.60;;
33108;SDS011;19481;51.118;6.940;2024-03-02T10:29:22;0.50;;;0.50;;
33108;SDS011;19481;51.118;6.940;2024-03-02T10:34:28;0.50;;;0.50;;
33108;SDS011;19481;51.118;6.940;2024-03-02T10:39:30;0.50;;;0.50;;
33108;SDS011;19481;51.118;6.940;2024-03-02T10:44:33;0.50;;;0.50;;
33108;SDS011;19481;51.118;6.940;2024-03-02T10:49:36;0.50;;;0.50;;
33108;SDS011;19481;51.118;6.940;2024-03-02T10:54:39;0.50;;;0.50;;
33108;SDS011;19481;51.118;6.940;2024-03-02T10:59:44;0.50;;;0.50;;
33108;SDS011;19481;51.118;6.940;2024-03-02T11:04:54;0.60;;;0.60;;
33108;SDS011;19481;51.118;6.940;2024-03-02T11:09:57;0.60;;;0.60;;
33108;SDS011;19481;51.118;6.940;2024-03-02T11:15:10;0.88;;;0.55;;
33108;SDS011;19481;51.118;6.940;2024-03-02T11:20:14;0.50;;;0.50;;
33108;SDS011;19481;51.118;6.940;2024-03-02T11:25:25;0.55;;;0.50;;
33108;SDS011;19481;51.118;6.940;2024-03-02T11:35:52;0.55;;;0.50;;
33108;SDS011;19481;51.118;6.940;2024-03-02T11:40:54;0.43;;;0.43;;
33108;SDS011;19481;51.118;6.940;2024-03-02T11:46:00;0.40;;;0.40;;
33108;SDS011;19481;51.118;6.940;2024-03-02T11:51:07;0.43;;;0.43;;
33108;SDS011;19481;51.118;6.940;2024-03-02T11:56:09;0.50;;;0.50;;
33108;SDS011;19481;51.118;6.940;2024-03-02T12:01:13;0.50;;;0.50;;
33108;SDS011;19481;51.118;6.940;2024-03-02T12:06:14;0.50;;;0.50;;
33108;SDS011;19481;51.118;6.940;2024-03-02T12:11:16;0.50;;;0.50;;
33108;SDS011;19481;51.118;6.940;2024-03-02T12:16:23;1.25;;;0.60;;
33108;SDS011;19481;51.118;6.940;2024-03-02T12:21:25;0.50;;;0.50;;
33108;SDS011;19481;51.118;6.940;2024-03-02T12:26:27;0.50;;;0.50;;
33108;SDS011;19481;51.118;6.940;2024-03-02T12:31:31;0.60;;;0.60;;
33108;SDS011;19481;51.118;6.940;2024-03-02T12:36:36;0.52;;;0.50;;
33108;SDS011;19481;51.118;6.940;2024-03-02T12:41:38;0.45;;;0.45;;
33108;SDS011;19481;51.118;6.940;2024-03-02T12:46:42;0.43;;;0.40;;
33108;SDS011;19481;51.118;6.940;2024-03-02T12:51:44;0.50;;;0.50;;
33108;SDS011;19481;51.118;6.940;2024-03-02T12:56:47;0.90;;;0.57;;
33108;SDS011;19481;51.118;6.940;2024-03-02T13:01:53;0.50;;;0.50;;
33108;SDS011;19481;51.118;6.940;2024-03-02T13:06:57;0.40;;;0.40;;
33108;SDS011;19481;51.118;6.940;2024-03-02T13:11:59;0.40;;;0.40;;
33108;SDS011;19481;51.118;6.940;2024-03-02T13:17:02;0.50;;;0.50;;
33108;SDS011;19481;51.118;6.940;2024-03-02T13:22:05;0.50;;;0.50;;
33108;SDS011;19481;51.118;6.940;2024-03-02T13:27:07;0.40;;;0.40;;
33108;SDS011;19481;51.118;6.940;2024-03-02T13:32:10;0.55;;;0.55;;
33108;SDS011;19481;51.118;6.940;2024-03-02T13:37:11;0.40;;;0.40;;
33108;SDS011;19481;51.118;6.940;2024-03-02T13:42:13;0.50;;;0.50;;
33108;SDS011;19481;51.118;6.940;2024-03-02T13:47:16;0.52;;;0.50;;
33108;SDS011;19481;51.118;6.940;2024-03-02T13:52:18;0.60;;;0.60;;
33108;SDS011;19481;51.118;6.940;2024-03-02T13:57:20;0.60;;;0.40;;
33108;SDS011;19481;51.118;6.940;2024-03-02T14:02:23;0.50;;;0.50;;
33108;SDS011;19481;51.118;6.940;2024-03-02T14:07:26;0.40;;;0.40;;
33108;SDS011;19481;51.118;6.940;2024-03-02T14:12:27;3.10;;;0.70;;
33108;SDS011;19481;51.118;6.940;2024-03-02T14:17:30;0.82;;;0.50;;
33108;SDS011;19481;51.118;6.940;2024-03-02T14:22:32;1.25;;;0.50;;
33108;SDS011;19481;51.118;6.940;2024-03-02T14:27:34;0.50;;;0.50;;
33108;SDS011;19481;51.118;6.940;2024-03-02T14:32:37;0.52;;;0.52;;
33108;SDS011;19481;51.118;6.940;2024-03-02T14:37:39;0.50;;;0.50;;
33108;SDS011;19481;51.118;6.940;2024-03-02T14:42:41;0.45;;;0.45;;
33108;SDS011;19481;51.118;6.940;2024-03-02T14:47:48;0.40;;;0.40;;
33108;SDS011;19481;51.118;6.940;2024-03-02T14:52:50;0.50;;;0.50;;
33108;SDS011;19481;51.118;6.940;2024-03-02T14:57:52;0.40;;;0.40;;
33108;SDS011;19481;51.118;6.940;2024-03-02T15:02:55;0.40;;;0.40;;
33108;SDS011;19481;51.118;6.940;2024-03-02T15:07:56;0.52;;;0.40;;
33108;SDS011;19481;51.118;6.940;2024-03-02T15:12:59;0.50;;;0.50;;
33108;SDS011;19481;51.118;6.940;2024-03-02T15:18:03;0.50;;;0.50;;
33108;SDS011;19481;51.118;6.940;2024-03-02T15:23:05;0.50;;;0.50;;
33108;SDS011;19481;51.118;6.940;2024-03-02T15:28:06;0.50;;;0.50;;
33108;SDS011;19481;51.118;6.940;2024-03-02T15:33:09;1.10;;;0.55;;
33108;SDS011;19481;51.118;6.940;2024-03-02T15:38:11;0.50;;;0.50;;
33108;SDS011;19481;51.118;6.940;2024-03-02T15:43:15;0.50;;;0.50;;
33108;SDS011;19481;51.118;6.940;2024-03-02T15:48:18;0.43;;;0.43;;
33108;SDS011;19481;51.118;6.940;2024-03-02T15:53:20;0.65;;;0.65;;
33108;SDS011;19481;51.118;6.940;2024-03-02T15:58:21;0.43;;;0.43;;
33108;SDS011;19481;51.118;6.940;2024-03-02T16:03:24;0.40;;;0.40;;
33108;SDS011;19481;51.118;6.940;2024-03-02T16:08:26;0.93;;;0.77;;
33108;SDS011;19481;51.118;6.940;2024-03-02T16:13:27;0.60;;;0.60;;
33108;SDS011;19481;51.118;6.940;2024-03-02T16:18:31;0.50;;;0.50;;
33108;SDS011;19481;51.118;6.940;2024-03-02T16:23:34;1.00;;;0.80;;
33108;SDS011;19481;51.118;6.940;2024-03-02T16:28:36;0.57;;;0.57;;
33108;SDS011;19481;51.118;6.940;2024-03-02T16:33:39;1.42;;;0.70;;
33108;SDS011;19481;51.118;6.940;2024-03-02T16:38:42;1.77;;;0.65;;
33108;SDS011;19481;51.118;6.940;2024-03-02T16:43:43;0.52;;;0.52;;
33108;SDS011;19481;51.118;6.940;2024-03-02T16:48:47;1.73;;;0.50;;
33108;SDS011;19481;51.118;6.940;2024-03-02T16:53:49;0.70;;;0.70;;
33108;SDS011;19481;51.118;6.940;2024-03-02T16:58:50;0.57;;;0.57;;
33108;SDS011;19481;51.118;6.940;2024-03-02T17:03:53;0.60;;;0.60;;
33108;SDS011;19481;51.118;6.940;2024-03-02T17:08:55;0.55;;;0.55;;
33108;SDS011;19481;51.118;6.940;2024-03-02T17:13:56;0.50;;;0.50;;
33108;SDS011;19481;51.118;6.940;2024-03-02T17:19:00;0.47;;;0.47;;
33108;SDS011;19481;51.118;6.940;2024-03-02T17:24:01;1.05;;;0.63;;
33108;SDS011;19481;51.118;6.940;2024-03-02T17:29:03;0.50;;;0.50;;
33108;SDS011;19481;51.118;6.940;2024-03-02T17:34:06;0.55;;;0.55;;
33108;SDS011;19481;51.118;6.940;2024-03-02T17:39:08;0.55;;;0.55;;
33108;SDS011;19481;51.118;6.940;2024-03-02T17:44:10;0.70;;;0.70;;
33108;SDS011;19481;51.118;6.940;2024-03-02T17:49:13;0.50;;;0.50;;
33108;SDS011;19481;51.118;6.940;2024-03-02T17:54:15;0.80;;;0.80;;
33108;SDS011;19481;51.118;6.940;2024-03-02T17:59:16;0.50;;;0.50;;
33108;SDS011;19481;51.118;6.940;2024-03-02T18:04:19;0.50;;;0.50;;
33108;SDS011;19481;51.118;6.940;2024-03-02T18:09:22;0.50;;;0.50;;
33108;SDS011;19481;51.118;6.940;2024-03-02T18:14:23;0.65;;;0.65;;
33108;SDS011;19481;51.118;6.940;2024-03-02T18:19:26;0.60;;;0.60;;
33108;SDS011;19481;51.118;6.940;2024-03-02T18:24:29;0.75;;;0.75;;
33108;SDS011;19481;51.118;6.940;2024-03-02T18:29:30;1.63;;;0.73;;
33108;SDS011;19481;51.118;6.940;2024-03-02T18:34:33;0.70;;;0.70;;
33108;SDS011;19481;51.118;6.940;2024-03-02T18:39:35;1.52;;;0.70;;
33108;SDS011;19481;51.118;6.940;2024-03-02T18:44:37;0.63;;;0.60;;
33108;SDS011;19481;51.118;6.940;2024-03-02T18:49:43;0.60;;;0.60;;
33108;SDS011;19481;51.118;6.940;2024-03-02T18:54:45;0.73;;;0.70;;
33108;SDS011;19481;51.118;6.940;2024-03-02T18:59:47;0.80;;;0.80;;
33108;SDS011;19481;51.118;6.940;2024-03-02T19:04:50;0.90;;;0.73;;
33108;SDS011;19481;51.118;6.940;2024-03-02T19:09:51;0.77;;;0.70;;
33108;SDS011;19481;51.118;6.940;2024-03-02T19:14:53;0.88;;;0.88;;
33108;SDS011;19481;51.118;6.940;2024-03-02T19:19:56;1.23;;;0.80;;
33108;SDS011;19481;51.118;6.940;2024-03-02T19:24:57;0.90;;;0.90;;
33108;SDS011;19481;51.118;6.940;2024-03-02T19:30:01;0.85;;;0.80;;
33108;SDS011;19481;51.118;6.940;2024-03-02T19:35:06;1.00;;;1.00;;
33108;SDS011;19481;51.118;6.940;2024-03-02T19:40:09;0.68;;;0.63;;
33108;SDS011;19481;51.118;6.940;2024-03-02T19:45:11;0.70;;;0.70;;
33108;SDS011;19481;51.118;6.940;2024-03-02T19:50:14;0.65;;;0.65;;
33108;SDS011;19481;51.118;6.940;2024-03-02T19:55:17;1.63;;;0.70;;
33108;SDS011;19481;51.118;6.940;2024-03-02T20:00:20;0.70;;;0.70;;
33108;SDS011;19481;51.118;6.940;2024-03-02T20:05:23;0.85;;;0.85;;
33108;SDS011;19481;51.118;6.940;2024-03-02T20:10:25;3.03;;;0.95;;
33108;SDS011;19481;51.118;6.940;2024-03-02T20:15:28;0.70;;;0.70;;
33108;SDS011;19481;51.118;6.940;2024-03-02T20:20:31;0.52;;;0.52;;
33108;SDS011;19481;51.118;6.940;2024-03-02T20:25:32;1.00;;;0.80;;
33108;SDS011;19481;51.118;6.940;2024-03-02T20:30:34;0.70;;;0.70;;
33108;SDS011;19481;51.118;6.940;2024-03-02T20:35:37;0.60;;;0.60;;
33108;SDS011;19481;51.118;6.940;2024-03-02T20:40:39;2.08;;;1.20;;
33108;SDS011;19481;51.118;6.940;2024-03-02T20:45:42;0.73;;;0.73;;
33108;SDS011;19481;51.118;6.940;2024-03-02T20:50:45;1.00;;;0.93;;
33108;SDS011;19481;51.118;6.940;2024-03-02T20:55:46;1.42;;;1.05;;
33108;SDS011;19481;51.118;6.940;2024-03-02T21:00:48;0.88;;;0.88;;
33108;SDS011;19481;51.118;6.940;2024-03-02T21:05:51;0.80;;;0.80;;
33108;SDS011;19481;51.118;6.940;2024-03-02T21:10:52;1.00;;;0.90;;
33108;SDS011;19481;51.118;6.940;2024-03-02T21:15:54;1.35;;;1.00;;
33108;SDS011;19481;51.118;6.940;2024-03-02T21:20:57;0.70;;;0.70;;
33108;SDS011;19481;51.118;6.940;2024-03-02T21:25:59;1.52;;;0.85;;
33108;SDS011;19481;51.118;6.940;2024-03-02T21:31:01;3.50;;;0.90;;
33108;SDS011;19481;51.118;6.940;2024-03-02T21:36:04;1.20;;;1.10;;
33108;SDS011;19481;51.118;6.940;2024-03-02T21:41:06;1.10;;;1.00;;
33108;SDS011;19481;51.118;6.940;2024-03-02T21:46:09;1.90;;;0.90;;
33108;SDS011;19481;51.118;6.940;2024-03-02T21:51:15;1.17;;;1.10;;
33108;SDS011;19481;51.118;6.940;2024-03-02T21:56:17;2.15;;;1.08;;
33108;SDS011;19481;51.118;6.940;2024-03-02T22:01:18;1.60;;;1.27;;
33108;SDS011;19481;51.118;6.940;2024-03-02T22:06:21;1.80;;;1.20;;
33108;SDS011;19481;51.118;6.940;2024-03-02T22:11:23;1.05;;;0.90;;
33108;SDS011;19481;51.118;6.940;2024-03-02T22:16:24;0.90;;;0.90;;
33108;SDS011;19481;51.118;6.940;2024-03-02T22:21:28;1.67;;;1.20;;
33108;SDS011;19481;51.118;6.940;2024-03-02T22:26:29;1.50;;;1.00;;
33108;SDS011;19481;51.118;6.940;2024-03-02T22:31:31;1.10;;;1.08;;
33108;SDS011;19481;51.118;6.940;2024-03-02T22:36:34;1.88;;;1.23;;
33108;SDS011;19481;51.118;6.940;2024-03-02T22:41:35;1.10;;;1.00;;
33108;SDS011;19481;51.118;6.940;2024-03-02T22:46:37;1.20;;;1.10;;
33108;SDS011;19481;51.118;6.940;2024-03-02T22:51:40;1.10;;;0.90;;
33108;SDS011;19481;51.118;6.940;2024-03-02T22:56:41;0.95;;;0.95;;
33108;SDS011;19481;51.118;6.940;2024-03-02T23:01:44;1.65;;;1.25;;
33108;SDS011;19481;51.118;6.940;2024-03-02T23:06:46;3.03;;;1.00;;
33108;SDS011;19481;51.118;6.940;2024-03-02T23:11:48;1.35;;;1.23;;
33108;SDS011;19481;51.118;6.940;2024-03-02T23:16:51;1.15;;;0.88;;
33108;SDS011;19481;51.118;6.940;2024-03-02T23:21:54;2.13;;;1.05;;
33108;SDS011;19481;51.118;6.940;2024-03-02T23:26:55;1.00;;;1.00;;
33108;SDS011;19481;51.118;6.940;2024-03-02T23:31:57;2.15;;;1.05;;
33108;SDS011;19481;51.118;6.940;2024-03-02T23:37:00;6.45;;;1.23;;
33108;SDS011;19481;51.118;6.940;2024-03-02T23:42:02;1.05;;;1.05;;
33108;SDS011;19481;51.118;6.940;2024-03-02T23:47:05;2.30;;;1.60;;
33108;SDS011;19481;51.118;6.940;2024-03-02T23:52:09;1.58;;;1.27;;
33108;SDS011;19481;51.118;6.940;2024-03-02T23:57:10;1.48;;;1.38;;
